Time;durP1;ratioP1;P1;durP2;ratioP2;P2;SDS_P1;SDS_P2;PMS_P1;PMS_P2;Temp;Humidity;BMP_temperature;BMP_pressure;BME280_temperature;BME280_humidity;BME280_pressure;Samples;Min_cycle;Max_cycle;Signal;HPM_P1;HPM_P2
2022/12/14 00:01:24;;;;;;;6.78;4.18;;;18.00;54.10;;;;;;4904869;29;20028;-65
2022/12/14 00:03:50;;;;;;;6.25;4.57;;;18.00;54.10;;;;;;4905805;29;20046;-65
2022/12/14 00:06:23;;;;;;;6.70;4.10;;;18.00;54.10;;;;;;4906280;29;20040;-66
2022/12/14 00:08:52;;;;;;;6.68;4.38;;;18.00;54.00;;;;;;4904539;29;20921;-66
2022/12/14 00:11:24;;;;;;;5.97;4.00;;;18.00;54.00;;;;;;4904659;29;20048;-66
2022/12/14 00:13:55;;;;;;;5.72;4.30;;;18.00;53.90;;;;;;4903632;29;20504;-66
2022/12/14 00:16:28;;;;;;;7.35;4.35;;;18.00;53.80;;;;;;4902791;29;20052;-65
2022/12/14 00:18:56;;;;;;;5.68;3.60;;;18.00;53.80;;;;;;4903927;29;20638;-65
2022/12/14 00:21:22;;;;;;;7.57;4.32;;;17.90;53.70;;;;;;4908416;29;20055;-65
2022/12/14 00:23:49;;;;;;;5.82;3.88;;;17.90;53.60;;;;;;4885695;29;20041;-66
2022/12/14 00:26:23;;;;;;;6.70;4.30;;;17.90;53.60;;;;;;4892985;29;20048;-65
2022/12/14 00:28:51;;;;;;;6.30;4.45;;;17.90;53.50;;;;;;4907994;29;20147;-65
2022/12/14 00:31:17;;;;;;;6.95;4.30;;;17.90;53.50;;;;;;4908636;29;20048;-65
2022/12/14 00:33:43;;;;;;;7.63;4.47;;;17.90;53.50;;;;;;4907649;29;20040;-65
2022/12/14 00:36:10;;;;;;;5.82;3.83;;;17.90;53.50;;;;;;4906482;29;20048;-65
2022/12/14 00:38:36;;;;;;;6.22;4.40;;;17.90;53.40;;;;;;4891154;29;20654;-65
2022/12/14 00:41:02;;;;;;;6.82;4.15;;;17.90;53.40;;;;;;4870861;29;20060;-65
2022/12/14 00:43:27;;;;;;;6.00;4.03;;;17.90;53.40;;;;;;4890226;29;20036;-66
2022/12/14 00:45:53;;;;;;;6.00;4.07;;;17.90;53.40;;;;;;4907800;29;20066;-65
2022/12/14 00:48:21;;;;;;;6.10;4.07;;;17.90;53.30;;;;;;4909899;29;20036;-66
2022/12/14 00:50:48;;;;;;;6.18;4.40;;;17.90;53.20;;;;;;4907640;29;20804;-65
2022/12/14 00:53:13;;;;;;;5.55;4.20;;;17.90;53.20;;;;;;4901948;29;20055;-65
2022/12/14 00:55:41;;;;;;;6.40;4.35;;;17.90;53.10;;;;;;4908722;29;20036;-66
2022/12/14 00:58:09;;;;;;;6.05;4.60;;;17.90;53.10;;;;;;4889408;29;20404;-65
2022/12/14 01:00:35;;;;;;;5.20;3.85;;;17.90;53.10;;;;;;4891863;29;20043;-65
2022/12/14 01:03:01;;;;;;;6.80;4.00;;;17.90;53.10;;;;;;4905749;29;20088;-65
2022/12/14 01:05:27;;;;;;;6.63;4.18;;;17.90;53.10;;;;;;4905628;29;20071;-65
2022/12/14 01:07:53;;;;;;;6.75;4.40;;;17.90;53.00;;;;;;4910579;29;20043;-66
2022/12/14 01:10:19;;;;;;;6.80;4.60;;;17.90;53.00;;;;;;4902713;29;20051;-65
2022/12/14 01:12:44;;;;;;;6.43;4.32;;;17.90;53.00;;;;;;4905856;29;20134;-66
2022/12/14 01:15:10;;;;;;;6.13;4.43;;;17.90;52.90;;;;;;4905216;29;20051;-65
2022/12/14 01:17:36;;;;;;;5.35;4.47;;;17.90;52.80;;;;;;4907247;29;20715;-66
2022/12/14 01:20:03;;;;;;;6.55;4.20;;;17.90;52.80;;;;;;4899704;29;20033;-65
2022/12/14 01:22:29;;;;;;;5.65;4.22;;;17.90;52.80;;;;;;4905395;29;20072;-65
2022/12/14 01:24:54;;;;;;;6.82;4.43;;;17.90;52.70;;;;;;4907381;29;20040;-66
2022/12/14 01:27:20;;;;;;;5.82;4.05;;;17.90;52.70;;;;;;4904905;29;20131;-66
2022/12/14 01:29:45;;;;;;;5.50;3.90;;;17.90;52.60;;;;;;4905174;29;20052;-66
2022/12/14 01:32:11;;;;;;;5.97;4.50;;;17.90;52.50;;;;;;4906254;29;20084;-65
2022/12/14 01:34:37;;;;;;;5.95;4.18;;;17.90;52.50;;;;;;4905590;29;20465;-65
2022/12/14 01:37:02;;;;;;;6.57;4.50;;;18.00;52.40;;;;;;4904237;29;20044;-65
2022/12/14 01:39:28;;;;;;;8.30;4.78;;;18.00;52.30;;;;;;4910160;29;20492;-66
2022/12/14 01:41:53;;;;;;;7.82;4.80;;;18.00;52.20;;;;;;4907228;29;20036;-65
2022/12/14 01:44:19;;;;;;;6.00;4.30;;;18.00;52.10;;;;;;4889298;29;20104;-65
2022/12/14 01:46:53;;;;;;;7.00;4.65;;;18.00;52.00;;;;;;4904267;29;20040;-65
2022/12/14 01:49:42;;;;;;;6.25;4.57;;;18.00;52.00;;;;;;4923326;29;20035;-66
2022/12/14 01:52:30;;;;;;;6.35;4.53;;;18.00;51.90;;;;;;4905441;29;20559;-66
2022/12/14 01:55:01;;;;;;;6.73;4.70;;;18.00;51.90;;;;;;4903085;29;20139;-65
2022/12/14 01:57:35;;;;;;;8.13;4.55;;;18.00;51.70;;;;;;4907509;29;21136;-65
2022/12/14 02:00:01;;;;;;;6.10;4.57;;;18.00;51.70;;;;;;4905804;29;20047;-66
2022/12/14 02:02:28;;;;;;;6.40;4.30;;;18.10;51.70;;;;;;4907125;29;20123;-65
2022/12/14 02:04:58;;;;;;;6.95;4.78;;;18.10;51.60;;;;;;4907776;29;20080;-64
2022/12/14 02:07:27;;;;;;;6.63;4.93;;;18.10;51.50;;;;;;4904227;29;20063;-66
2022/12/14 02:09:55;;;;;;;5.68;4.38;;;18.10;51.40;;;;;;4910875;29;20205;-66
2022/12/14 02:12:31;;;;;;;7.30;4.90;;;18.10;51.30;;;;;;4903641;29;20040;-65
2022/12/14 02:14:59;;;;;;;6.18;4.68;;;18.10;51.20;;;;;;4888709;29;20051;-65
2022/12/14 02:17:26;;;;;;;6.63;4.70;;;18.10;51.20;;;;;;4921323;29;20128;-65
2022/12/14 02:19:52;;;;;;;7.72;4.28;;;18.10;51.10;;;;;;4904990;29;20055;-65
2022/12/14 02:22:42;;;;;;;7.30;4.40;;;18.10;51.10;;;;;;4903749;29;20048;-65
2022/12/14 02:25:29;;;;;;;6.38;4.53;;;18.10;51.00;;;;;;4889514;29;20069;-65
2022/12/14 02:28:28;;;;;;;6.28;4.50;;;18.10;51.00;;;;;;4904394;29;20036;-66
2022/12/14 02:31:27;;;;;;;6.85;4.80;;;18.10;50.90;;;;;;4907345;29;20036;-66
2022/12/14 02:34:00;;;;;;;6.18;4.75;;;18.10;50.80;;;;;;4904764;29;20036;-66
2022/12/14 02:36:51;;;;;;;6.75;4.72;;;18.10;50.80;;;;;;4915103;29;20047;-65
2022/12/14 02:39:43;;;;;;;6.60;4.95;;;18.10;50.70;;;;;;4900282;29;20075;-65
2022/12/14 02:42:17;;;;;;;7.35;4.55;;;18.10;50.70;;;;;;4911956;29;20115;-65
2022/12/14 02:44:55;;;;;;;6.80;4.65;;;18.10;50.70;;;;;;4905520;29;20462;-65
2022/12/14 02:47:27;;;;;;;7.80;4.90;;;18.10;50.70;;;;;;4904871;29;20684;-65
2022/12/14 02:50:12;;;;;;;5.90;4.30;;;18.10;50.70;;;;;;4882964;29;20048;-65
2022/12/14 02:53:08;;;;;;;8.80;4.75;;;18.10;50.50;;;;;;4905213;29;20159;-66
2022/12/14 02:55:50;;;;;;;6.57;4.40;;;18.10;50.50;;;;;;4903196;29;20754;-65
2022/12/14 02:58:27;;;;;;;6.28;4.28;;;18.10;50.50;;;;;;4881652;29;20048;-65
2022/12/14 03:00:55;;;;;;;6.95;5.00;;;18.10;50.50;;;;;;4907249;29;20146;-65
2022/12/14 03:03:21;;;;;;;6.72;4.93;;;18.10;50.50;;;;;;4918880;29;20048;-65
2022/12/14 03:06:00;;;;;;;6.65;4.82;;;18.10;50.50;;;;;;4906237;29;20104;-65
2022/12/14 03:08:28;;;;;;;7.30;4.78;;;18.10;50.40;;;;;;4904397;29;20048;-65
2022/12/14 03:11:05;;;;;;;6.43;4.22;;;18.00;50.40;;;;;;4906897;29;20036;-65
2022/12/14 03:13:45;;;;;;;5.95;4.68;;;18.00;50.40;;;;;;4903730;29;20956;-64
2022/12/14 03:16:20;;;;;;;6.35;4.57;;;18.00;50.40;;;;;;4901541;29;20040;-65
2022/12/14 03:18:55;;;;;;;6.22;4.57;;;18.10;50.30;;;;;;4905463;29;20048;-65
2022/12/14 03:21:27;;;;;;;6.72;4.53;;;18.10;50.30;;;;;;4903975;29;20424;-65
2022/12/14 03:23:55;;;;;;;7.05;5.00;;;18.10;50.30;;;;;;4906721;29;20091;-65
2022/12/14 03:26:36;;;;;;;6.93;4.57;;;18.10;50.30;;;;;;4919321;29;20390;-65
2022/12/14 03:29:14;;;;;;;5.85;4.57;;;18.10;50.10;;;;;;4904378;29;20532;-64
2022/12/14 03:31:48;;;;;;;7.75;4.75;;;18.10;50.10;;;;;;4906268;29;20511;-65
2022/12/14 03:34:18;;;;;;;6.53;4.65;;;18.10;50.10;;;;;;4901026;29;20040;-65
2022/12/14 03:36:52;;;;;;;5.72;4.38;;;18.10;50.10;;;;;;4900956;29;20044;-66
2022/12/14 03:39:25;;;;;;;6.95;4.75;;;18.10;50.00;;;;;;4889503;29;20048;-66
2022/12/14 03:42:03;;;;;;;6.10;4.35;;;18.10;49.90;;;;;;4904199;29;20048;-66
2022/12/14 03:45:01;;;;;;;7.20;5.13;;;18.10;49.80;;;;;;4905211;29;20040;-66
2022/12/14 03:47:44;;;;;;;6.05;4.60;;;18.10;49.80;;;;;;4904662;29;20052;-65
2022/12/14 03:50:18;;;;;;;6.07;4.40;;;18.10;49.70;;;;;;4905307;29;20048;-65
2022/12/14 03:53:04;;;;;;;6.07;4.65;;;18.10;49.70;;;;;;4909999;29;20086;-65
2022/12/14 03:56:02;;;;;;;6.60;4.65;;;18.10;49.70;;;;;;4896260;29;20060;-65
2022/12/14 03:58:34;;;;;;;7.45;4.97;;;18.10;49.60;;;;;;4911337;29;20124;-66
2022/12/14 04:01:17;;;;;;;6.65;4.97;;;18.10;49.70;;;;;;4917133;29;20044;-66
2022/12/14 04:03:51;;;;;;;6.85;5.10;;;18.10;49.60;;;;;;4906928;29;20048;-65
2022/12/14 04:06:26;;;;;;;7.15;4.78;;;18.10;49.50;;;;;;4912082;29;20075;-66
2022/12/14 04:09:03;;;;;;;6.50;4.53;;;18.10;49.40;;;;;;4907533;29;20520;-66
2022/12/14 04:20:11;;;;;;;6.75;4.80;;;18.10;49.40;;;;;;4901862;29;20044;-65
2022/12/14 04:22:42;;;;;;;7.07;4.88;;;18.10;49.40;;;;;;4912453;29;20090;-65
2022/12/14 04:29:54;;;;;;;6.30;4.72;;;18.10;49.30;;;;;;4912598;29;20441;-66
2022/12/14 04:30:58;;;;;;;6.60;4.57;;;18.10;49.30;;;;;;4913669;29;20110;-65
2022/12/14 04:36:09;;;;;;;7.05;4.80;;;18.10;49.20;;;;;;4912808;29;20056;-65
2022/12/14 04:38:38;;;;;;;5.82;4.45;;;18.10;49.20;;;;;;4906382;29;20525;-65
2022/12/14 04:41:10;;;;;;;6.43;4.70;;;18.00;49.10;;;;;;4915198;29;20037;-65
2022/12/14 04:43:39;;;;;;;6.93;4.47;;;18.00;49.10;;;;;;4906237;29;20472;-65
2022/12/14 04:46:12;;;;;;;6.75;4.65;;;18.00;49.10;;;;;;4912843;29;20056;-65
2022/12/14 04:49:00;;;;;;;5.88;4.90;;;18.00;49.10;;;;;;4912175;29;20123;-65
2022/12/14 04:52:03;;;;;;;6.05;4.68;;;18.00;49.00;;;;;;4914520;29;20672;-65
2022/12/14 04:54:41;;;;;;;6.13;4.47;;;18.00;49.00;;;;;;4907063;29;20047;-65
2022/12/14 04:57:23;;;;;;;6.97;4.65;;;18.00;49.10;;;;;;4911291;29;20044;-66
2022/12/14 04:59:49;;;;;;;7.35;4.80;;;18.00;49.10;;;;;;4907902;29;21206;-65
2022/12/14 05:02:52;;;;;;;5.82;4.32;;;18.10;49.00;;;;;;4907295;29;20445;-65
2022/12/14 05:05:40;;;;;;;7.10;4.90;;;18.00;49.00;;;;;;4906089;29;20040;-65
2022/12/14 05:08:47;;;;;;;6.53;4.38;;;18.10;49.00;;;;;;4906385;29;20044;-65
2022/12/14 05:11:25;;;;;;;6.65;4.60;;;18.00;48.90;;;;;;4881060;29;20080;-65
2022/12/14 05:13:51;;;;;;;6.70;4.85;;;18.00;48.90;;;;;;4906465;29;20036;-65
2022/12/14 05:16:19;;;;;;;6.18;4.55;;;18.00;48.90;;;;;;4906094;29;20052;-65
2022/12/14 05:18:48;;;;;;;7.28;5.00;;;18.00;48.80;;;;;;4901608;29;20048;-65
2022/12/14 05:24:02;;;;;;;6.85;4.75;;;18.00;48.70;;;;;;4909951;29;20048;-66
2022/12/14 05:26:29;;;;;;;6.88;5.22;;;18.00;48.70;;;;;;4905671;29;20044;-65
2022/12/14 05:28:55;;;;;;;6.18;4.60;;;18.00;48.80;;;;;;4908376;29;20091;-65
2022/12/14 05:31:21;;;;;;;6.35;4.78;;;18.00;48.80;;;;;;4860828;29;1059360;-65
2022/12/14 05:33:47;;;;;;;5.72;4.32;;;18.00;48.80;;;;;;4904862;29;20057;-66
2022/12/14 05:36:13;;;;;;;5.90;4.97;;;18.00;48.80;;;;;;4907246;29;20048;-66
2022/12/14 05:38:38;;;;;;;7.43;4.88;;;18.00;48.80;;;;;;4904730;29;20044;-65
2022/12/14 05:41:04;;;;;;;6.55;4.53;;;18.00;48.80;;;;;;4910291;29;20051;-66
2022/12/14 05:43:29;;;;;;;7.07;4.63;;;18.00;48.70;;;;;;4886315;29;20040;-66
2022/12/14 05:45:59;;;;;;;7.00;4.60;;;18.00;48.70;;;;;;4906583;29;20576;-66
2022/12/14 05:48:25;;;;;;;6.97;4.95;;;18.00;48.80;;;;;;4919643;29;20044;-65
2022/12/14 05:50:50;;;;;;;6.07;4.47;;;17.90;48.70;;;;;;4906546;29;20131;-65
2022/12/14 05:53:18;;;;;;;6.25;4.63;;;17.90;48.80;;;;;;4906812;29;20047;-65
2022/12/14 05:55:47;;;;;;;7.68;4.65;;;17.90;48.80;;;;;;4920596;29;20056;-66
2022/12/14 05:58:13;;;;;;;6.38;4.65;;;17.90;48.80;;;;;;4907060;29;20039;-65
2022/12/14 06:00:40;;;;;;;7.15;4.70;;;17.90;48.80;;;;;;4887412;29;20087;-66
2022/12/14 06:03:06;;;;;;;6.32;4.40;;;17.90;48.70;;;;;;4904472;29;20131;-65
2022/12/14 06:05:32;;;;;;;6.80;4.53;;;17.90;48.70;;;;;;4919537;29;20148;-65
2022/12/14 06:07:57;;;;;;;7.68;4.72;;;17.90;48.60;;;;;;4908038;29;20040;-66
2022/12/14 06:10:23;;;;;;;5.90;4.22;;;17.90;48.60;;;;;;4907295;29;20050;-65
2022/12/14 06:12:49;;;;;;;5.57;4.22;;;17.90;48.60;;;;;;4908265;29;20488;-65
2022/12/14 06:15:14;;;;;;;6.15;4.30;;;17.90;48.70;;;;;;4905278;29;20032;-65
2022/12/14 06:17:45;;;;;;;5.55;4.63;;;17.90;48.60;;;;;;4903871;29;20084;-65
2022/12/14 06:20:11;;;;;;;7.15;4.72;;;17.90;48.60;;;;;;4906402;29;20521;-65
2022/12/14 06:22:37;;;;;;;6.53;4.50;;;17.90;48.80;;;;;;4904498;29;20044;-65
2022/12/14 06:25:03;;;;;;;5.95;4.70;;;17.90;48.80;;;;;;4869868;29;20115;-66
2022/12/14 06:27:29;;;;;;;7.38;4.90;;;17.90;48.70;;;;;;4908237;29;20043;-65
2022/12/14 06:29:54;;;;;;;6.10;4.50;;;17.90;48.60;;;;;;4908206;29;20044;-70
2022/12/14 06:32:20;;;;;;;6.80;4.30;;;17.90;48.60;;;;;;4907535;29;20071;-65
2022/12/14 06:34:46;;;;;;;6.25;4.53;;;17.90;48.70;;;;;;4889697;29;20404;-65
2022/12/14 06:37:13;;;;;;;5.70;4.72;;;17.90;48.70;;;;;;4911008;29;20047;-65
2022/12/14 06:39:38;;;;;;;6.88;4.70;;;17.90;48.80;;;;;;4910451;29;20044;-65
2022/12/14 06:42:05;;;;;;;7.53;4.45;;;17.90;48.80;;;;;;4908745;29;20040;-66
2022/12/14 06:44:31;;;;;;;6.82;4.47;;;17.90;48.80;;;;;;4903577;29;20530;-65
2022/12/14 06:46:56;;;;;;;8.18;4.68;;;17.90;48.90;;;;;;4893219;29;20424;-66
2022/12/14 06:49:22;;;;;;;7.55;4.32;;;17.90;48.80;;;;;;4908195;29;20527;-66
2022/12/14 06:51:48;;;;;;;7.25;4.45;;;17.80;48.80;;;;;;4910314;29;20456;-64
2022/12/14 06:54:15;;;;;;;7.78;4.20;;;17.80;48.80;;;;;;4892483;29;20130;-65
2022/12/14 06:56:43;;;;;;;7.15;4.57;;;17.80;48.80;;;;;;4890927;29;20048;-65
2022/12/14 06:59:10;;;;;;;9.00;4.60;;;17.90;48.90;;;;;;4893201;29;20040;-65
2022/12/14 07:01:37;;;;;;;7.30;4.55;;;17.90;49.00;;;;;;4905951;29;20650;-66
2022/12/14 07:04:03;;;;;;;14.82;4.55;;;17.80;49.00;;;;;;4907911;29;20052;-65
2022/12/14 07:06:33;;;;;;;9.60;4.50;;;17.80;49.00;;;;;;4905804;29;20104;-65
2022/12/14 07:09:00;;;;;;;6.53;4.90;;;17.80;49.10;;;;;;4906763;29;20483;-67
2022/12/14 07:11:28;;;;;;;7.13;4.45;;;17.80;49.10;;;;;;4907931;29;20047;-66
2022/12/14 07:13:54;;;;;;;8.57;4.80;;;17.80;49.10;;;;;;4907282;29;20551;-65
2022/12/14 07:16:22;;;;;;;8.77;4.75;;;17.80;49.30;;;;;;4906107;29;20051;-66
2022/12/14 07:18:49;;;;;;;6.30;4.65;;;17.80;49.10;;;;;;4889485;29;20116;-66
2022/12/14 07:21:17;;;;;;;6.57;4.47;;;17.80;49.10;;;;;;4911226;29;20040;-66
2022/12/14 07:23:44;;;;;;;6.63;4.45;;;17.80;49.10;;;;;;4893345;29;20419;-66
2022/12/14 07:26:17;;;;;;;7.72;4.90;;;17.80;49.10;;;;;;4896034;29;20052;-65
2022/12/14 07:28:46;;;;;;;7.53;4.28;;;17.80;49.10;;;;;;4885752;29;20048;-66
2022/12/14 07:31:26;;;;;;;7.78;4.95;;;17.80;49.10;;;;;;4902292;29;20056;-65
2022/12/14 07:33:56;;;;;;;7.68;5.18;;;18.80;49.50;;;;;;4906438;29;20181;-66
2022/12/14 07:36:24;;;;;;;7.30;5.22;;;17.80;48.80;;;;;;4907227;29;20103;-65
2022/12/14 07:38:51;;;;;;;5.80;4.50;;;17.80;48.80;;;;;;4904323;29;20767;-66
2022/12/14 07:41:23;;;;;;;8.73;5.82;;;17.80;48.70;;;;;;4901262;29;20120;-66
2022/12/14 07:43:49;;;;;;;8.05;5.55;;;17.80;48.40;;;;;;4902412;29;20056;-65
2022/12/14 07:46:17;;;;;;;7.82;5.15;;;17.80;48.30;;;;;;4922897;29;20052;-64
2022/12/14 07:48:44;;;;;;;8.25;5.63;;;17.80;48.10;;;;;;4911571;29;20044;-67
2022/12/14 07:51:12;;;;;;;9.80;6.10;;;17.80;48.00;;;;;;4907110;29;20052;-66
2022/12/14 07:53:38;;;;;;;8.05;5.93;;;17.80;48.00;;;;;;4903821;29;20388;-66
2022/12/14 07:56:07;;;;;;;11.57;6.07;;;17.80;47.80;;;;;;4906041;29;20127;-76
2022/12/14 07:58:34;;;;;;;12.98;6.88;;;17.80;46.90;;;;;;4905913;29;20075;-69
2022/12/14 08:01:15;;;;;;;10.35;6.45;;;17.70;47.50;;;;;;4906590;29;20052;-68
2022/12/14 08:03:42;;;;;;;11.80;6.20;;;17.70;47.50;;;;;;4900213;29;20059;-69
2022/12/14 08:06:10;;;;;;;10.80;6.25;;;17.60;47.70;;;;;;4888588;29;20144;-71
2022/12/14 08:08:36;;;;;;;11.50;6.60;;;17.60;47.90;;;;;;4911071;29;20126;-69
2022/12/14 08:11:02;;;;;;;11.60;6.43;;;17.60;48.00;;;;;;4885618;29;20139;-67
2022/12/14 08:13:28;;;;;;;13.23;6.40;;;17.60;48.20;;;;;;4904655;29;20056;-70
2022/12/14 08:15:54;;;;;;;16.52;6.75;;;17.60;48.30;;;;;;4905522;29;20052;-70
2022/12/14 08:18:19;;;;;;;11.30;6.13;;;17.60;48.40;;;;;;4905578;29;20076;-69
2022/12/14 08:20:51;;;;;;;10.35;6.07;;;17.70;48.60;;;;;;4899139;29;20123;-68
2022/12/14 08:23:17;;;;;;;11.73;6.82;;;17.70;48.80;;;;;;4905173;29;20493;-70
2022/12/14 08:25:43;;;;;;;13.13;6.18;;;17.70;49.60;;;;;;4896545;29;20111;-70
2022/12/14 08:28:09;;;;;;;9.50;5.85;;;17.70;49.00;;;;;;4893607;29;20036;-70
2022/12/14 08:30:38;;;;;;;11.57;6.32;;;17.80;49.10;;;;;;4899188;29;20504;-69
2022/12/14 08:33:04;;;;;;;8.98;6.20;;;17.80;49.20;;;;;;4897143;29;20049;-67
2022/12/14 08:35:32;;;;;;;9.23;5.78;;;17.80;49.20;;;;;;4918507;29;20108;-68
2022/12/14 08:37:58;;;;;;;12.32;6.40;;;17.90;49.30;;;;;;4919020;29;20044;-68
2022/12/14 08:40:23;;;;;;;10.50;6.05;;;17.90;49.30;;;;;;4903236;29;20050;-69
2022/12/14 08:42:50;;;;;;;10.45;6.30;;;18.00;49.40;;;;;;4908514;29;20040;-70
2022/12/14 08:45:16;;;;;;;11.82;6.32;;;18.00;49.40;;;;;;4901309;29;20058;-67
2022/12/14 08:47:41;;;;;;;10.50;6.28;;;18.00;49.40;;;;;;4905344;29;20044;-68
2022/12/14 08:50:08;;;;;;;12.25;6.53;;;18.00;49.40;;;;;;4902674;29;20072;-70
2022/12/14 08:52:34;;;;;;;13.32;6.53;;;18.00;49.20;;;;;;4905882;29;20058;-69
2022/12/14 08:54:59;;;;;;;8.48;5.82;;;18.10;49.20;;;;;;4902305;29;20048;-69
2022/12/14 08:57:25;;;;;;;7.50;5.82;;;18.20;49.40;;;;;;4916294;29;20044;-70
2022/12/14 08:59:51;;;;;;;8.52;5.90;;;18.20;49.40;;;;;;4906050;29;20581;-68
2022/12/14 09:02:18;;;;;;;11.18;6.28;;;18.20;49.50;;;;;;4902787;29;20044;-69
2022/12/14 09:04:45;;;;;;;8.82;5.80;;;18.30;49.60;;;;;;4922198;29;20044;-70
2022/12/14 09:07:10;;;;;;;7.60;5.70;;;18.30;49.60;;;;;;4920365;29;20076;-70
2022/12/14 09:09:36;;;;;;;13.38;6.00;;;18.30;49.60;;;;;;4900798;29;20076;-70
2022/12/14 09:12:05;;;;;;;10.57;6.00;;;18.40;49.50;;;;;;4905277;29;20043;-68
2022/12/14 09:14:32;;;;;;;9.10;6.18;;;18.40;49.50;;;;;;4888405;29;20123;-67
2022/12/14 09:16:58;;;;;;;7.80;5.50;;;18.40;49.40;;;;;;4891486;29;20048;-67
2022/12/14 09:19:25;;;;;;;8.40;6.22;;;18.40;49.50;;;;;;4887638;29;20048;-67
2022/12/14 09:21:52;;;;;;;8.50;5.95;;;18.40;49.50;;;;;;4901201;29;20052;-67
2022/12/14 09:24:19;;;;;;;10.10;5.93;;;18.40;49.60;;;;;;4902037;29;20115;-70
2022/12/14 09:26:45;;;;;;;10.75;5.80;;;18.40;49.60;;;;;;4886923;29;20059;-69
2022/12/14 09:29:16;;;;;;;11.45;6.35;;;18.50;49.60;;;;;;4903514;29;20127;-70
2022/12/14 09:31:42;;;;;;;8.93;5.60;;;18.50;50.40;;;;;;4906128;29;20060;-68
2022/12/14 09:34:08;;;;;;;9.85;6.05;;;18.40;49.70;;;;;;4913250;29;20095;-68
2022/12/14 09:36:34;;;;;;;10.02;6.53;;;18.50;49.60;;;;;;4917090;29;20425;-68
2022/12/14 09:39:03;;;;;;;10.07;6.30;;;18.50;49.50;;;;;;4904231;29;20074;-68
2022/12/14 09:41:34;;;;;;;8.43;5.93;;;18.50;49.40;;;;;;4905370;29;20135;-69
2022/12/14 09:44:24;;;;;;;7.82;5.88;;;18.50;49.40;;;;;;4915119;29;20056;-70
2022/12/14 09:47:10;;;;;;;10.93;5.40;;;18.50;49.40;;;;;;4901645;29;20064;-70
2022/12/14 09:50:00;;;;;;;7.05;5.50;;;18.50;49.50;;;;;;4900045;29;20575;-68
2022/12/14 09:52:33;;;;;;;7.63;5.72;;;18.50;49.30;;;;;;4901199;29;20036;-69
2022/12/14 09:55:01;;;;;;;9.35;5.82;;;18.50;49.20;;;;;;4903920;29;20131;-68
2022/12/14 09:57:40;;;;;;;8.30;5.68;;;18.50;49.20;;;;;;4887727;29;20052;-68
2022/12/14 10:00:12;;;;;;;;;;;18.50;49.20;;;;;;4904343;29;20051;-70
2022/12/14 10:02:55;;;;;;;13.80;5.88;;;18.50;49.20;;;;;;4902614;29;19960;-68
2022/12/14 10:06:02;;;;;;;8.05;5.63;;;18.50;49.30;;;;;;4907094;29;20135;-69
2022/12/14 10:08:30;;;;;;;10.23;5.57;;;18.60;49.40;;;;;;4911836;29;20297;-70
2022/12/14 10:11:15;;;;;;;7.38;5.55;;;18.60;49.40;;;;;;4886707;29;20052;-70
2022/12/14 10:14:07;;;;;;;8.38;5.82;;;18.60;49.60;;;;;;4885022;29;20126;-71
2022/12/14 10:17:10;;;;;;;11.98;6.30;;;18.60;49.60;;;;;;4907303;29;20036;-74
2022/12/14 10:19:53;;;;;;;8.57;5.63;;;18.60;49.60;;;;;;4891890;29;20066;-74
2022/12/14 10:22:24;;;;;;;8.55;6.00;;;18.60;49.60;;;;;;4901878;29;20044;-72
2022/12/14 10:24:59;;;;;;;8.35;5.78;;;18.70;49.70;;;;;;4886124;29;20095;-71
2022/12/14 10:27:27;;;;;;;14.30;6.13;;;18.70;49.70;;;;;;4902021;29;20048;-71
2022/12/14 10:30:01;;;;;;;;;;;18.70;49.80;;;;;;4887675;29;20123;-70
2022/12/14 10:32:38;;;;;;;9.32;6.10;;;18.70;49.90;;;;;;4904455;29;20021;-68
2022/12/14 10:35:19;;;;;;;8.15;5.88;;;18.70;49.80;;;;;;4908119;29;20117;-68
2022/12/14 10:37:49;;;;;;;12.10;5.65;;;18.70;49.60;;;;;;4901064;29;20048;-69
2022/12/14 10:40:21;;;;;;;12.18;6.03;;;18.70;49.50;;;;;;4901382;29;20493;-69
2022/12/14 10:42:53;;;;;;;7.72;5.82;;;18.80;49.40;;;;;;4901461;29;20048;-68
2022/12/14 10:45:40;;;;;;;11.35;5.40;;;18.80;49.30;;;;;;4889510;29;20060;-68
2022/12/14 10:48:27;;;;;;;9.13;5.90;;;18.70;49.10;;;;;;4907396;29;20044;-68
2022/12/14 10:50:55;;;;;;;9.93;5.88;;;18.70;49.10;;;;;;4885483;29;20879;-68
2022/12/14 10:53:36;;;;;;;11.10;5.70;;;18.70;49.10;;;;;;4909665;29;20052;-69
2022/12/14 10:56:09;;;;;;;10.02;6.13;;;18.70;49.00;;;;;;4890774;29;20051;-69
2022/12/14 10:58:34;;;;;;;9.90;5.93;;;18.70;49.00;;;;;;4923293;29;20095;-69
2022/12/14 11:01:01;;;;;;;7.72;5.90;;;18.70;49.00;;;;;;4906533;29;20645;-68
2022/12/14 11:03:27;;;;;;;10.75;5.85;;;18.70;48.90;;;;;;4908086;29;20157;-69
2022/12/14 11:06:08;;;;;;;9.65;5.40;;;18.80;48.90;;;;;;4908848;29;20500;-69
2022/12/14 11:08:46;;;;;;;7.57;5.78;;;18.70;48.80;;;;;;4919456;29;20169;-68
2022/12/14 11:11:19;;;;;;;8.55;5.78;;;18.80;48.80;;;;;;4914988;29;20076;-68
2022/12/14 11:14:06;;;;;;;7.47;5.57;;;18.80;48.80;;;;;;4900363;29;20111;-69
2022/12/14 11:16:37;;;;;;;9.55;5.70;;;18.80;48.60;;;;;;4904630;29;20066;-69
2022/12/14 11:19:05;;;;;;;7.25;5.38;;;18.70;48.70;;;;;;4907160;29;20099;-69
2022/12/14 11:21:37;;;;;;;11.88;5.75;;;18.70;48.60;;;;;;4905757;29;20071;-69
2022/12/14 11:24:03;;;;;;;7.03;5.20;;;18.80;48.60;;;;;;4890828;29;20060;-69
2022/12/14 11:26:40;;;;;;;7.85;5.20;;;18.80;48.60;;;;;;4906883;29;20044;-69
2022/12/14 11:29:16;;;;;;;7.50;5.13;;;18.80;48.50;;;;;;4911585;29;20051;-69
2022/12/14 11:31:45;;;;;;;8.98;5.20;;;18.80;48.50;;;;;;4906725;29;20123;-69
2022/12/14 11:34:22;;;;;;;;;;;18.80;48.50;;;;;;4890987;29;20127;-69
2022/12/14 11:36:48;;;;;;;7.67;5.00;;;18.80;48.30;;;;;;4902609;29;19927;-68
2022/12/14 11:39:14;;;;;;;7.90;5.05;;;18.80;48.50;;;;;;4899728;29;20307;-69
2022/12/14 11:41:46;;;;;;;12.07;5.22;;;18.80;48.40;;;;;;4891378;29;20091;-67
2022/12/14 11:44:15;;;;;;;6.88;5.18;;;18.80;48.30;;;;;;4905399;29;20728;-69
2022/12/14 11:46:41;;;;;;;8.48;5.60;;;18.90;48.30;;;;;;4908545;29;20377;-69
2022/12/14 11:49:23;;;;;;;6.95;5.03;;;18.80;48.30;;;;;;4888250;29;20103;-69
2022/12/14 11:52:08;;;;;;;9.55;5.50;;;18.90;48.20;;;;;;4902411;29;20063;-68
2022/12/14 11:54:36;;;;;;;9.68;5.63;;;18.90;48.10;;;;;;4901599;29;20066;-69
2022/12/14 11:57:12;;;;;;;10.90;6.00;;;18.90;48.10;;;;;;4903125;29;20163;-69
2022/12/14 12:00:00;;;;;;;9.00;5.90;;;18.90;48.00;;;;;;4903387;29;20059;-66
2022/12/14 12:02:34;;;;;;;8.05;5.55;;;18.90;48.00;;;;;;4898133;29;20095;-67
2022/12/14 12:05:19;;;;;;;10.43;5.65;;;18.90;48.20;;;;;;4899755;29;20056;-66
2022/12/14 12:07:48;;;;;;;12.30;5.43;;;18.90;48.50;;;;;;4896400;29;20567;-70
2022/12/14 12:10:43;;;;;;;9.43;5.32;;;19.00;48.60;;;;;;4897909;29;20449;-68
2022/12/14 12:13:39;;;;;;;9.73;5.32;;;19.00;48.80;;;;;;4896752;29;20048;-68
2022/12/14 12:16:13;;;;;;;10.50;5.20;;;19.00;48.90;;;;;;4900545;29;20056;-70
2022/12/14 12:19:00;;;;;;;7.68;5.13;;;19.00;48.80;;;;;;4903068;29;20051;-70
2022/12/14 12:21:29;;;;;;;7.57;5.10;;;19.10;48.90;;;;;;4900584;29;20109;-68
2022/12/14 12:24:21;;;;;;;9.02;5.15;;;19.10;48.90;;;;;;4916873;29;20036;-69
2022/12/14 12:27:10;;;;;;;7.35;5.50;;;19.10;48.70;;;;;;4893553;29;20047;-72
2022/12/14 12:29:41;;;;;;;15.27;5.30;;;19.10;48.70;;;;;;4903894;29;20029;-70
2022/12/14 12:32:22;;;;;;;8.52;4.72;;;19.10;48.70;;;;;;4882072;29;20127;-69
2022/12/14 12:34:53;;;;;;;10.18;4.88;;;19.10;48.50;;;;;;4906571;29;20098;-69
2022/12/14 12:37:32;;;;;;;8.45;4.88;;;19.10;48.40;;;;;;4919722;29;20052;-67
2022/12/14 12:40:21;;;;;;;9.95;5.20;;;19.20;48.30;;;;;;4903071;29;20066;-68
2022/12/14 12:43:11;;;;;;;7.72;4.85;;;19.20;48.20;;;;;;4901967;29;20091;-69
2022/12/14 12:45:48;;;;;;;9.27;5.10;;;19.10;48.20;;;;;;4909198;29;20596;-70
2022/12/14 12:48:24;;;;;;;9.07;4.72;;;19.20;48.10;;;;;;4910027;29;20043;-69
2022/12/14 12:50:53;;;;;;;7.40;4.85;;;19.20;48.10;;;;;;4886089;29;20052;-69
2022/12/14 12:53:29;;;;;;;10.43;5.07;;;19.10;48.10;;;;;;4903522;29;20139;-70
2022/12/14 12:56:02;;;;;;;7.10;4.40;;;19.10;48.10;;;;;;4899798;29;20048;-70
2022/12/14 12:58:32;;;;;;;7.78;4.80;;;19.20;48.10;;;;;;4906331;29;20457;-68
2022/12/14 13:01:02;;;;;;;9.07;4.70;;;19.20;48.10;;;;;;4886260;29;20051;-70
2022/12/14 13:03:36;;;;;;;9.32;5.10;;;19.20;48.20;;;;;;4887150;29;20064;-70
2022/12/14 13:06:22;;;;;;;6.95;4.38;;;19.10;48.20;;;;;;4884616;29;20053;-70
2022/12/14 13:08:55;;;;;;;7.53;4.57;;;19.20;48.30;;;;;;4922686;29;20056;-70
2022/12/14 13:11:36;;;;;;;9.90;4.45;;;19.10;48.20;;;;;;4904532;29;20040;-69
2022/12/14 13:14:14;;;;;;;8.40;4.65;;;19.10;48.20;;;;;;4901767;29;20055;-71
2022/12/14 13:16:41;;;;;;;8.10;4.57;;;19.10;48.20;;;;;;4906089;29;20047;-69
2022/12/14 13:19:41;;;;;;;7.15;4.20;;;19.10;48.30;;;;;;4887292;29;20409;-70
2022/12/14 13:22:11;;;;;;;7.18;4.30;;;19.10;48.30;;;;;;4903041;29;20087;-71
2022/12/14 13:24:37;;;;;;;6.05;4.70;;;19.10;48.30;;;;;;4916778;29;20075;-70
2022/12/14 13:27:27;;;;;;;7.70;4.20;;;19.10;48.30;;;;;;4868959;29;20133;-68
2022/12/14 13:29:55;;;;;;;6.90;4.70;;;19.10;48.30;;;;;;4904881;29;20044;-69